sim
Sign-in with your pilot id or email,
or register
Callsign
Passwort

Schedule Details

Flight Number: DLH2111
Departure: Bremen Airport (EDDW) at 12:20
Arrival: Munich Airport (EDDM) at 13:30
Route: Lufthansa Passenger Schedule. Enter filed route here before submitting Pirep.

Weather Information
Getting current METAR information for EDDW 101820Z 28007KT 9999 SCT025 14/11 Q1016 NOSIG
Getting current METAR information for EDDM 101820Z 29007KT 230V320 9999 4500SE SHRA FEW018 BKN045CB 21/15 Q1016 RETSRA TEMPO TSRA

Schedule Frequency

Route Map